Time,TemperatureF,DewpointF,PressureIn,WindDirection,WindDirectionDegrees,WindSpeedMPH,WindSpeedGustMPH,Humidity,HourlyPrecipIn,Conditions,Clouds,dailyrainin,SoftwareType,DateUTC
2013-02-04 00:00:00,32.7,23.7,29.87,WNW,289,9.0,14.0,69,0.00,OVC,,0.07,WeatherDisplay:10.37,2013-02-04 05:00:00,
2013-02-04 00:15:00,32.7,23.7,29.90,WNW,291,15.0,20.0,69,0.00,BKN,,0.07,WeatherDisplay:10.37,2013-02-04 05:15:00,
2013-02-04 00:30:00,32.2,22.1,29.90,WNW,292,20.0,21.0,66,0.00,BKN,,0.07,WeatherDisplay:10.37,2013-02-04 05:30:00,
2013-02-04 00:45:00,32.2,19.4,29.90,WNW,295,18.0,22.0,59,0.00,OVC,,0.07,WeatherDisplay:10.37,2013-02-04 05:45:00,
2013-02-04 01:00:00,30.7,18.9,29.90,NNW,330,20.0,27.0,61,0.00,OVC,,0.07,WeatherDisplay:10.37,2013-02-04 06:00:00,
2013-02-04 01:15:00,30.2,18.0,29.90,NW,323,23.0,27.0,60,0.00,OVC,,0.07,WeatherDisplay:10.37,2013-02-04 06:15:00,
2013-02-04 01:30:00,30.2,17.6,29.90,NW,318,17.0,20.0,59,0.00,OVC,,0.07,WeatherDisplay:10.37,2013-02-04 06:30:00,
2013-02-04 01:45:00,29.7,14.2,29.93,NW,317,17.0,20.0,52,0.00,OVC,,0.07,WeatherDisplay:10.37,2013-02-04 06:45:00,
2013-02-04 02:00:00,29.1,10.9,29.93,NW,325,21.0,24.0,46,0.00,OVC,,0.07,WeatherDisplay:10.37,2013-02-04 07:00:00,
2013-02-04 02:15:00,29.1,10.4,29.93,NW,322,21.0,24.0,45,0.00,OVC,,0.07,WeatherDisplay:10.37,2013-02-04 07:15:00,
2013-02-04 02:30:00,29.1,10.9,29.93,NW,315,16.0,20.0,46,0.00,SCT,,0.07,WeatherDisplay:10.37,2013-02-04 07:30:00,
2013-02-04 02:45:00,28.0,6.2,29.93,NW,325,20.0,25.0,39,0.00,SCT,,0.07,WeatherDisplay:10.37,2013-02-04 07:45:00,
2013-02-04 03:00:00,27.7,9.6,29.95,NW,325,18.0,19.0,46,0.00,SCT,,0.07,WeatherDisplay:10.37,2013-02-04 08:00:00,
2013-02-04 03:15:00,27.5,8.4,29.95,NNW,327,17.0,26.0,44,0.00,BKN,,0.07,WeatherDisplay:10.37,2013-02-04 08:15:00,
2013-02-04 03:30:00,27.5,8.9,29.95,NW,320,17.0,20.0,45,0.00,FEW,,0.07,WeatherDisplay:10.37,2013-02-04 08:30:00,
2013-02-04 03:45:00,27.3,5.6,29.95,NW,314,17.0,20.0,39,0.00,FEW,,0.07,WeatherDisplay:10.37,2013-02-04 08:45:00,
2013-02-04 04:00:00,27.3,5.6,29.95,NW,314,17.0,21.0,39,0.00,FEW,,0.07,WeatherDisplay:10.37,2013-02-04 09:00:00,
2013-02-04 04:15:00,27.1,6.0,29.99,NW,315,17.0,21.0,40,0.00,FEW,,0.07,WeatherDisplay:10.37,2013-02-04 09:15:00,
2013-02-04 04:30:00,27.0,5.3,29.99,NW,313,18.0,24.0,39,0.00,FEW,,0.07,WeatherDisplay:10.37,2013-02-04 09:30:00,
2013-02-04 04:45:00,26.4,4.8,29.99,NW,315,17.0,24.0,39,0.00,FEW,,0.07,WeatherDisplay:10.37,2013-02-04 09:45:00,
2013-02-04 05:00:00,26.4,4.8,29.99,WNW,303,17.0,21.0,39,0.00,FEW,,0.07,WeatherDisplay:10.37,2013-02-04 10:00:00,
2013-02-04 05:15:00,26.2,6.2,29.99,NW,316,17.0,20.0,42,0.00,FEW,,0.07,WeatherDisplay:10.37,2013-02-04 10:15:00,
2013-02-04 05:30:00,26.4,4.8,29.99,NW,316,14.0,19.0,39,0.00,FEW,,0.07,WeatherDisplay:10.37,2013-02-04 10:30:00,
2013-02-04 05:45:00,26.1,6.1,30.01,NW,308,15.0,19.0,42,0.00,BKN,,0.07,WeatherDisplay:10.37,2013-02-04 10:45:00,
2013-02-04 06:00:00,26.1,4.4,30.01,NW,312,15.0,20.0,39,0.00,BKN,,0.07,WeatherDisplay:10.37,2013-02-04 11:00:00,
2013-02-04 06:15:00,25.5,7.1,30.01,NW,308,14.0,16.0,45,0.00,SCT,,0.07,WeatherDisplay:10.37,2013-02-04 11:15:00,
2013-02-04 06:30:00,25.7,4.7,30.01,NW,315,14.0,18.0,40,0.00,CLR,,0.07,WeatherDisplay:10.37,2013-02-04 11:30:00,
2013-02-04 06:45:00,25.5,4.0,30.01,NW,315,14.0,17.0,39,0.00,CLR,,0.07,WeatherDisplay:10.37,2013-02-04 11:45:00,
2013-02-04 07:00:00,25.2,4.2,30.04,NW,308,14.0,17.0,40,0.00,FEW,,0.00,WeatherDisplay:10.37,2013-02-04 12:00:00,
2013-02-04 07:15:00,25.5,4.0,30.04,NW,312,15.0,17.0,39,0.00,FEW,,0.00,WeatherDisplay:10.37,2013-02-04 12:15:00,
2013-02-04 07:30:00,25.2,3.6,30.04,WNW,301,14.0,17.0,39,0.00,FEW,,0.00,WeatherDisplay:10.37,2013-02-04 12:30:00,
2013-02-04 07:45:00,25.5,4.0,30.07,WNW,296,13.0,15.0,39,0.00,FEW,,0.00,WeatherDisplay:10.37,2013-02-04 12:45:00,
2013-02-04 08:00:00,26.1,4.4,30.07,WNW,291,12.0,15.0,39,0.00,FEW,,0.00,WeatherDisplay:10.37,2013-02-04 13:00:00,
2013-02-04 08:15:00,26.2,4.6,30.07,WNW,295,15.0,18.0,39,0.00,FEW,,0.00,WeatherDisplay:10.37,2013-02-04 13:15:00,
2013-02-04 08:30:00,26.8,5.1,30.07,WNW,292,16.0,19.0,39,0.00,FEW,,0.00,WeatherDisplay:10.37,2013-02-04 13:30:00,
2013-02-04 08:45:00,26.8,5.1,30.07,WNW,290,14.0,16.0,39,0.00,CLR,,0.00,WeatherDisplay:10.37,2013-02-04 13:45:00,
2013-02-04 09:00:00,27.3,5.6,30.10,WNW,298,12.0,17.0,39,0.00,CLR,,0.00,WeatherDisplay:10.37,2013-02-04 14:00:00,
2013-02-04 09:15:00,28.0,6.2,30.10,WNW,284,13.0,17.0,39,0.00,CLR,,0.00,WeatherDisplay:10.37,2013-02-04 14:15:00,
2013-02-04 09:30:00,28.2,6.4,30.10,WNW,301,14.0,19.0,39,0.00,CLR,,0.00,WeatherDisplay:10.37,2013-02-04 14:30:00,
2013-02-04 09:45:00,28.4,6.6,30.10,WNW,288,13.0,13.0,39,0.00,CLR,,0.00,WeatherDisplay:10.37,2013-02-04 14:45:00,
2013-02-04 10:00:00,28.6,6.7,30.10,WNW,300,14.0,15.0,39,0.00,CLR,,0.00,WeatherDisplay:10.37,2013-02-04 15:00:00,
2013-02-04 10:15:00,28.6,6.7,30.10,WNW,285,15.0,18.0,39,0.00,CLR,,0.00,WeatherDisplay:10.37,2013-02-04 15:15:00,
2013-02-04 10:30:00,28.9,7.0,30.10,WNW,286,15.0,20.0,39,0.00,CLR,,0.00,WeatherDisplay:10.37,2013-02-04 15:30:00,
2013-02-04 10:45:00,28.9,7.0,30.10,WNW,297,13.0,16.0,39,0.00,CLR,,0.00,WeatherDisplay:10.37,2013-02-04 15:45:00,
2013-02-04 11:00:00,30.2,8.2,30.10,WNW,289,13.0,15.0,39,0.00,CLR,,0.00,WeatherDisplay:10.37,2013-02-04 16:00:00,
2013-02-04 11:15:00,29.8,7.9,30.07,WNW,297,13.0,15.0,39,0.00,CLR,,0.00,WeatherDisplay:10.37,2013-02-04 16:15:00,
2013-02-04 11:30:00,29.5,7.5,30.07,WNW,300,14.0,18.0,39,0.00,CLR,,0.00,WeatherDisplay:10.37,2013-02-04 16:30:00,
2013-02-04 11:45:00,30.9,8.8,30.07,WNW,285,13.0,18.0,39,0.00,CLR,,0.00,WeatherDisplay:10.37,2013-02-04 16:45:00,
2013-02-04 12:00:00,31.5,9.3,30.07,WNW,284,13.0,16.0,39,0.00,CLR,,0.00,WeatherDisplay:10.37,2013-02-04 17:00:00,
2013-02-04 12:15:00,32.2,10.0,30.04,WNW,288,12.0,13.0,39,0.00,CLR,,0.00,WeatherDisplay:10.37,2013-02-04 17:15:00,
2013-02-04 12:30:00,32.0,9.8,30.04,WNW,286,10.0,13.0,39,0.00,CLR,,0.00,WeatherDisplay:10.37,2013-02-04 17:30:00,
2013-02-04 12:45:00,32.4,10.1,30.04,WNW,282,13.0,21.0,39,0.00,CLR,,0.00,WeatherDisplay:10.37,2013-02-04 17:45:00,
2013-02-04 13:00:00,32.0,9.8,30.01,WNW,287,12.0,14.0,39,0.00,CLR,,0.00,WeatherDisplay:10.37,2013-02-04 18:00:00,
2013-02-04 13:15:00,32.9,10.6,30.01,WNW,302,13.0,15.0,39,0.00,CLR,,0.00,WeatherDisplay:10.37,2013-02-04 18:15:00,
2013-02-04 13:30:00,32.9,10.6,30.01,WNW,299,12.0,14.0,39,0.00,CLR,,0.00,WeatherDisplay:10.37,2013-02-04 18:30:00,
2013-02-04 13:45:00,32.4,10.1,30.01,WNW,291,13.0,15.0,39,0.00,CLR,,0.00,WeatherDisplay:10.37,2013-02-04 18:45:00,
2013-02-04 14:00:00,33.1,10.8,30.01,WNW,290,12.0,14.0,39,0.00,CLR,,0.00,WeatherDisplay:10.37,2013-02-04 19:00:00,
2013-02-04 14:15:00,32.9,10.6,30.01,WNW,291,10.0,14.0,39,0.00,CLR,,0.00,WeatherDisplay:10.37,2013-02-04 19:15:00,
2013-02-04 14:30:00,33.8,11.4,30.01,West,279,10.0,12.0,39,0.00,CLR,,0.00,WeatherDisplay:10.37,2013-02-04 19:30:00,
2013-02-04 14:45:00,33.4,11.1,30.01,West,277,9.0,15.0,39,0.00,CLR,,0.00,WeatherDisplay:10.37,2013-02-04 19:45:00,
2013-02-04 15:00:00,33.6,11.3,30.01,WNW,285,8.0,12.0,39,0.00,CLR,,0.00,WeatherDisplay:10.37,2013-02-04 20:00:00,
2013-02-04 15:15:00,33.3,10.9,30.01,WNW,289,9.0,12.0,39,0.00,CLR,,0.00,WeatherDisplay:10.37,2013-02-04 20:15:00,
2013-02-04 15:30:00,33.3,10.9,30.01,West,275,9.0,13.0,39,0.00,CLR,,0.00,WeatherDisplay:10.37,2013-02-04 20:30:00,
2013-02-04 15:45:00,32.9,10.6,30.01,West,265,6.0,10.0,39,0.00,CLR,,0.00,WeatherDisplay:10.37,2013-02-04 20:45:00,
2013-02-04 16:00:00,32.7,10.4,30.01,WNW,283,7.0,10.0,39,0.00,CLR,,0.00,WeatherDisplay:10.37,2013-02-04 21:00:00,
2013-02-04 16:15:00,32.4,10.1,30.01,West,269,5.0,7.0,39,0.00,CLR,,0.00,WeatherDisplay:10.37,2013-02-04 21:15:00,
2013-02-04 16:30:00,32.5,10.3,30.01,West,269,3.0,6.0,39,0.00,CLR,,0.00,WeatherDisplay:10.37,2013-02-04 21:30:00,
2013-02-04 16:45:00,32.0,10.4,30.01,WSW,254,3.0,7.0,40,0.00,CLR,,0.00,WeatherDisplay:10.37,2013-02-04 21:45:00,
2013-02-04 17:00:00,31.3,9.2,30.01,WSW,253,3.0,8.0,39,0.00,CLR,,0.00,WeatherDisplay:10.37,2013-02-04 22:00:00,
2013-02-04 17:15:00,30.4,10.0,30.01,West,268,2.0,4.0,42,0.00,CLR,,0.00,WeatherDisplay:10.37,2013-02-04 22:15:00,
2013-02-04 17:30:00,29.8,11.5,30.01,West,274,1.0,3.0,46,0.00,CLR,,0.00,WeatherDisplay:10.37,2013-02-04 22:30:00,
2013-02-04 17:45:00,29.1,12.3,30.01,NNW,327,0.0,0.0,49,0.00,CLR,,0.00,WeatherDisplay:10.37,2013-02-04 22:45:00,
2013-02-04 18:00:00,28.4,12.1,30.01,NW,316,0.0,0.0,50,0.00,CLR,,0.00,WeatherDisplay:10.37,2013-02-04 23:00:00,
2013-02-04 18:30:00,27.9,14.2,30.01,SW,232,0.0,0.0,56,0.00,CLR,,0.00,WeatherDisplay:10.37,2013-02-04 23:30:00,
2013-02-04 18:45:00,27.5,13.8,30.01,SW,231,0.0,1.0,56,0.00,SCT,,0.00,WeatherDisplay:10.37,2013-02-04 23:45:00,
2013-02-04 19:00:00,27.0,13.7,30.01,SW,230,0.0,0.0,57,0.00,SCT,,0.00,WeatherDisplay:10.37,2013-02-05 00:00:00,
2013-02-04 19:15:00,27.9,15.4,30.01,SW,230,0.0,0.0,59,0.00,SCT,,0.00,WeatherDisplay:10.37,2013-02-05 00:15:00,
2013-02-04 19:30:00,28.9,16.8,30.01,South,173,0.0,0.0,60,0.00,FEW,,0.00,WeatherDisplay:10.37,2013-02-05 00:30:00,
2013-02-04 19:45:00,29.5,17.3,30.01,SE,140,0.0,0.0,60,0.00,BKN,,0.00,WeatherDisplay:10.37,2013-02-05 00:45:00,
2013-02-04 20:00:00,29.8,17.2,30.01,West,280,0.0,0.0,59,0.00,OVC,,0.00,WeatherDisplay:10.37,2013-02-05 01:00:00,
2013-02-04 20:15:00,30.2,17.2,30.01,South,185,0.0,0.0,58,0.00,OVC,,0.00,WeatherDisplay:10.37,2013-02-05 01:15:00,
2013-02-04 20:30:00,30.2,17.6,30.01,SW,215,0.0,0.0,59,0.00,OVC,,0.00,WeatherDisplay:10.37,2013-02-05 01:30:00,
2013-02-04 20:45:00,30.0,17.8,30.01,SW,215,0.0,0.0,60,0.00,OVC,,0.00,WeatherDisplay:10.37,2013-02-05 01:45:00,
2013-02-04 21:00:00,29.8,17.6,29.99,SW,215,0.0,0.0,60,0.00,OVC,,0.00,WeatherDisplay:10.37,2013-02-05 02:00:00,
2013-02-04 21:15:00,29.7,17.8,29.99,SW,215,0.0,0.0,61,0.00,OVC,,0.00,WeatherDisplay:10.37,2013-02-05 02:15:00,
2013-02-04 21:30:00,29.8,18.4,29.99,SW,215,0.0,0.0,62,0.00,OVC,,0.00,WeatherDisplay:10.37,2013-02-05 02:30:00,
2013-02-04 21:45:00,30.2,18.4,29.99,SE,145,0.0,0.0,61,0.00,BKN,,0.00,WeatherDisplay:10.37,2013-02-05 02:45:00,
2013-02-04 22:00:00,30.7,19.2,29.99,SE,145,0.0,0.0,62,0.00,BKN,,0.00,WeatherDisplay:10.37,2013-02-05 03:00:00,
2013-02-04 22:15:00,31.1,19.2,29.99,South,177,0.0,0.0,61,0.00,BKN,,0.00,WeatherDisplay:10.37,2013-02-05 03:15:00,
2013-02-04 22:30:00,31.6,20.1,29.99,SSE,152,0.0,0.0,62,0.00,OVC,,0.00,WeatherDisplay:10.37,2013-02-05 03:30:00,
2013-02-04 22:45:00,31.6,20.8,29.95,SSE,147,0.0,0.0,64,0.00,OVC,,0.00,WeatherDisplay:10.37,2013-02-05 03:45:00,
2013-02-04 23:00:00,32.2,21.4,29.95,SE,126,0.0,0.0,64,0.00,OVC,,0.00,WeatherDisplay:10.37,2013-02-05 04:00:00,
2013-02-04 23:15:00,32.2,21.4,29.95,ESE,120,0.0,0.0,64,0.00,OVC,,0.00,WeatherDisplay:10.37,2013-02-05 04:15:00,
2013-02-04 23:30:00,32.7,22.2,29.95,ESE,120,0.0,0.0,65,0.00,OVC,,0.00,WeatherDisplay:10.37,2013-02-05 04:30:00,
2013-02-04 23:45:00,33.3,23.5,29.95,SE,143,0.0,0.0,67,0.00,OVC,,0.00,WeatherDisplay:10.37,2013-02-05 04:45:00,